Time;durP1;ratioP1;P1;durP2;ratioP2;P2;SDS_P1;SDS_P2;PMS_P1;PMS_P2;Temp;Humidity;BMP_temperature;BMP_pressure;BME280_temperature;BME280_humidity;BME280_pressure;Samples;Min_cycle;Max_cycle;Signal;HPM_P1;HPM_P2
2021/12/21 00:00:24;;;;;;;24.27;14.23;;;102.40;2227.20;;;;;;5138162;27;20090;-85
2021/12/21 00:02:53;;;;;;;47.08;30.02;;;77.70;2227.20;;;;;;5136868;27;20023;-82
2021/12/21 00:05:21;;;;;;;52.42;33.40;;;77.70;2227.20;;;;;;5136584;27;20019;-79
2021/12/21 00:07:49;;;;;;;32.13;23.38;;;102.40;2227.20;;;;;;5136244;27;20051;-85
2021/12/21 00:10:17;;;;;;;33.47;23.08;;;102.40;2227.20;;;;;;5136144;27;20439;-84
2021/12/21 00:15:28;;;;;;;33.72;21.38;;;102.40;2227.20;;;;;;5138990;27;20392;-88
2021/12/21 00:25:22;;;;;;;24.08;15.18;;;77.70;2227.20;;;;;;5140808;27;20339;-88
2021/12/21 00:27:51;;;;;;;28.25;16.67;;;77.70;2227.20;;;;;;5137901;27;20015;-89
2021/12/21 00:30:18;;;;;;;21.60;13.70;;;102.40;2227.20;;;;;;5137724;27;20045;-90
2021/12/21 00:32:44;;;;;;;19.92;11.07;;;102.40;2227.20;;;;;;5137346;27;20030;-90
2021/12/21 00:35:11;;;;;;;15.73;9.55;;;102.50;2227.20;;;;;;5137683;27;20051;-89
2021/12/21 00:37:40;;;;;;;23.40;12.52;;;102.50;2227.20;;;;;;5137397;27;20064;-90
2021/12/21 00:40:10;;;;;;;24.23;13.45;;;102.40;2227.20;;;;;;5137844;27;20451;-90
2021/12/21 00:42:35;;;;;;;24.17;14.10;;;102.40;2227.20;;;;;;5136914;27;20023;-91
2021/12/21 00:45:10;;;;;;;25.48;15.98;;;102.50;2227.20;;;;;;5136663;27;20034;-93
2021/12/21 00:47:40;;;;;;;15.13;8.60;;;102.50;2227.20;;;;;;5136807;27;20027;-90
2021/12/21 00:50:16;;;;;;;28.42;16.52;;;102.40;2227.20;;;;;;5136598;27;20027;-90
2021/12/21 00:52:41;;;;;;;29.98;18.25;;;102.40;2227.20;;;;;;5136262;27;20072;-91
2021/12/21 00:55:07;;;;;;;29.95;17.15;;;102.40;2227.20;;;;;;5136131;27;20023;-91
2021/12/21 00:57:33;;;;;;;32.33;19.30;;;102.40;2227.20;;;;;;5136430;27;20105;-90
2021/12/21 00:59:59;;;;;;;16.40;10.27;;;102.40;2227.20;;;;;;5136475;27;20065;-91
2021/12/21 01:02:25;;;;;;;12.52;7.80;;;102.40;2227.20;;;;;;5136133;27;20023;-91
2021/12/21 01:04:51;;;;;;;15.07;8.15;;;102.50;2227.20;;;;;;5136364;27;20075;-90
2021/12/21 01:07:27;;;;;;;17.08;10.63;;;102.40;2227.20;;;;;;5136202;27;20110;-90
2021/12/21 01:15:20;;;;;;;15.75;10.20;;;102.40;2227.20;;;;;;5137088;27;20027;-92
2021/12/21 01:18:02;;;;;;;15.05;8.77;;;102.50;2227.20;;;;;;5136028;27;20027;-91
2021/12/21 01:20:42;;;;;;;13.38;7.15;;;102.40;2227.20;;;;;;5136072;27;20027;-92
2021/12/21 01:30:50;;;;;;;13.20;6.47;;;77.70;2227.20;;;;;;5137130;27;20445;-91
2021/12/21 01:33:46;;;;;;;7.95;4.57;;;77.70;2227.20;;;;;;5135605;27;20082;-90
2021/12/21 01:36:36;;;;;;;11.68;7.25;;;77.70;2227.20;;;;;;5135596;27;20022;-91
2021/12/21 01:41:55;;;;;;;12.68;7.90;;;77.70;2227.20;;;;;;5136627;27;20037;-91
2021/12/21 01:49:44;;;;;;;9.43;5.15;;;77.70;2227.20;;;;;;5136293;27;20022;-92
2021/12/21 01:52:14;;;;;;;10.18;4.88;;;77.70;2227.20;;;;;;5135419;27;20054;-91
2021/12/21 01:54:41;;;;;;;9.02;5.85;;;77.60;2227.20;;;;;;5135210;27;20027;-91
2021/12/21 01:57:08;;;;;;;8.48;5.15;;;77.60;2227.20;;;;;;5135329;27;20052;-91
2021/12/21 01:59:37;;;;;;;8.25;4.47;;;77.60;2227.20;;;;;;5135256;27;20015;-92
2021/12/21 02:02:05;;;;;;;6.90;4.20;;;77.60;2227.20;;;;;;5135236;27;20049;-90
2021/12/21 02:04:30;;;;;;;7.72;4.65;;;77.50;2227.20;;;;;;5135298;27;20513;-91
2021/12/21 02:06:56;;;;;;;7.90;4.68;;;77.50;2227.20;;;;;;5135066;27;20103;-91
2021/12/21 02:09:28;;;;;;;12.77;6.00;;;77.50;2227.20;;;;;;5135227;27;20409;-91
2021/12/21 02:11:55;;;;;;;10.80;6.20;;;77.50;2227.20;;;;;;5137378;27;20019;-90
2021/12/21 02:14:21;;;;;;;15.27;9.27;;;77.50;2227.20;;;;;;5159547;27;20370;-89
2021/12/21 02:17:09;;;;;;;19.35;10.55;;;77.50;2227.20;;;;;;5141409;27;20019;-91
2021/12/21 02:19:42;;;;;;;21.42;13.13;;;77.50;2227.20;;;;;;5137168;27;20061;-91
2021/12/21 02:22:12;;;;;;;18.08;7.85;;;77.50;2227.20;;;;;;5135505;27;20012;-92
2021/12/21 02:24:59;;;;;;;17.30;8.38;;;77.50;2227.20;;;;;;5134871;27;20030;-90
2021/12/21 02:27:30;;;;;;;17.33;9.18;;;77.50;2227.20;;;;;;5135746;27;20527;-91
2021/12/21 02:29:56;;;;;;;15.60;7.97;;;77.40;2227.20;;;;;;5135230;27;20059;-91
2021/12/21 02:32:23;;;;;;;10.93;6.43;;;77.30;2227.20;;;;;;5134927;27;20019;-91
2021/12/21 02:34:50;;;;;;;11.98;6.93;;;77.40;2227.20;;;;;;5134814;28;20099;-90
2021/12/21 02:37:16;;;;;;;12.20;6.75;;;77.30;2227.20;;;;;;5134842;28;20083;-92
2021/12/21 02:39:42;;;;;;;17.02;9.02;;;77.50;2227.20;;;;;;5134876;28;20029;-91
2021/12/21 02:42:08;;;;;;;20.85;11.00;;;77.40;2227.20;;;;;;5134794;28;20023;-91
2021/12/21 02:44:34;;;;;;;14.32;7.43;;;77.40;2227.20;;;;;;5134649;28;20019;-91
2021/12/21 02:47:00;;;;;;;19.58;8.27;;;77.30;2227.20;;;;;;5134693;28;20019;-91
2021/12/21 02:49:26;;;;;;;61.40;25.67;;;77.30;2227.20;;;;;;5134712;28;20023;-91
2021/12/21 02:51:52;;;;;;;12.60;7.43;;;77.30;2227.20;;;;;;5134841;28;20106;-91
2021/12/21 02:54:19;;;;;;;12.45;7.70;;;77.30;2227.20;;;;;;5134512;27;20034;-91
2021/12/21 02:56:46;;;;;;;10.15;5.43;;;77.20;2227.20;;;;;;5138255;27;20411;-91
2021/12/21 02:59:12;;;;;;;12.80;6.57;;;77.20;2227.20;;;;;;5138768;27;20023;-92
2021/12/21 03:01:39;;;;;;;33.47;18.23;;;77.60;2227.20;;;;;;5138664;27;20015;-92
2021/12/21 03:04:07;;;;;;;15.90;8.50;;;77.20;2227.20;;;;;;5138662;27;20023;-91
2021/12/21 03:09:55;;;;;;;6.43;3.90;;;77.20;2227.20;;;;;;5139562;27;20019;-92
2021/12/21 03:12:09;;;;;;;7.22;4.35;;;77.10;2227.20;;;;;;5130790;27;20126;-90
2021/12/21 03:14:35;;;;;;;6.95;4.30;;;77.10;2227.20;;;;;;5138376;27;20084;-90
2021/12/21 03:17:00;;;;;;;7.50;4.70;;;77.30;2227.20;;;;;;5138084;27;20026;-90
2021/12/21 03:19:26;;;;;;;10.90;5.88;;;77.00;2227.20;;;;;;5138278;27;20027;-91
2021/12/21 03:21:53;;;;;;;10.00;5.28;;;77.10;2227.20;;;;;;5138249;27;20022;-91
2021/12/21 03:24:19;;;;;;;8.30;5.28;;;77.10;2227.20;;;;;;5138248;27;20023;-91
2021/12/21 03:26:46;;;;;;;12.45;6.07;;;77.10;2227.20;;;;;;5138302;27;20030;-90
2021/12/21 03:29:12;;;;;;;14.23;7.22;;;77.20;2227.20;;;;;;5138381;27;20015;-91
2021/12/21 03:31:38;;;;;;;15.93;7.72;;;77.20;2227.20;;;;;;5138228;27;20027;-91
2021/12/21 03:34:05;;;;;;;14.82;8.70;;;77.20;2227.20;;;;;;5137918;27;20035;-92
2021/12/21 03:36:31;;;;;;;85.82;41.08;;;77.10;2227.20;;;;;;5138262;27;20443;-92
2021/12/21 03:39:04;;;;;;;46.95;22.48;;;77.10;2227.20;;;;;;5138075;27;20019;-93
2021/12/21 03:41:30;;;;;;;;;;;77.20;2227.20;;;;;;5138388;27;20022;-91
2021/12/21 03:44:00;;;;;;;17.98;9.68;;;77.10;2227.20;;;;;;5138458;27;20410;-93
2021/12/21 03:46:26;;;;;;;18.00;11.85;;;77.10;2227.20;;;;;;5138218;27;20031;-90
2021/12/21 03:48:52;;;;;;;48.28;25.73;;;77.00;2227.20;;;;;;5137730;27;20019;-91
2021/12/21 03:51:20;;;;;;;17.33;10.23;;;77.10;2227.20;;;;;;5138023;27;20056;-92
2021/12/21 03:53:47;;;;;;;6.90;4.38;;;77.00;2227.20;;;;;;5137605;27;20034;-90
2021/12/21 03:58:40;;;;;;;27.98;14.13;;;77.10;2227.20;;;;;;5138955;27;20112;-92
2021/12/21 04:01:06;;;;;;;9.02;4.93;;;77.10;2227.20;;;;;;5137674;27;20023;-91
2021/12/21 04:03:31;;;;;;;22.10;11.23;;;77.00;2227.20;;;;;;5137479;27;20450;-90
2021/12/21 04:05:57;;;;;;;12.25;7.03;;;77.10;2227.20;;;;;;5137053;27;20030;-90
2021/12/21 04:08:23;;;;;;;16.35;8.77;;;77.10;2227.20;;;;;;5137371;27;20019;-92
2021/12/21 04:10:49;;;;;;;10.80;6.20;;;77.20;2227.20;;;;;;5137316;27;20015;-92
2021/12/21 04:13:15;;;;;;;22.38;11.32;;;77.10;2227.20;;;;;;5137437;27;20023;-91
2021/12/21 04:15:43;;;;;;;12.68;6.93;;;77.10;2227.20;;;;;;5137284;27;20092;-91
2021/12/21 04:18:14;;;;;;;8.10;4.68;;;77.10;2227.20;;;;;;5137204;27;20019;-93
2021/12/21 04:20:40;;;;;;;10.50;6.00;;;77.10;2227.20;;;;;;5137235;27;20027;-91
2021/12/21 04:23:07;;;;;;;9.00;5.35;;;77.20;2227.20;;;;;;5137131;27;20073;-91
2021/12/21 04:25:34;;;;;;;14.00;6.47;;;77.10;2227.20;;;;;;5137214;27;20082;-91
2021/12/21 04:28:00;;;;;;;28.45;12.32;;;77.10;2227.20;;;;;;5137182;27;20019;-92
2021/12/21 04:30:26;;;;;;;11.52;5.53;;;77.20;2227.20;;;;;;5137167;27;20493;-91
2021/12/21 04:32:52;;;;;;;23.88;10.45;;;77.20;2227.20;;;;;;5137333;27;20023;-91
2021/12/21 04:35:20;;;;;;;22.58;9.90;;;77.10;2227.20;;;;;;5140599;27;20038;-91
2021/12/21 04:37:56;;;;;;;12.48;6.90;;;77.20;2227.20;;;;;;5140337;27;20052;-92
2021/12/21 04:40:27;;;;;;;53.33;24.33;;;77.20;2227.20;;;;;;5140379;27;20023;-91
2021/12/21 04:42:53;;;;;;;32.05;15.27;;;77.20;2227.20;;;;;;5140223;27;20064;-92
2021/12/21 04:45:19;;;;;;;15.15;8.35;;;77.20;2227.20;;;;;;5140150;27;20022;-91
2021/12/21 04:47:45;;;;;;;24.55;11.95;;;77.20;2227.20;;;;;;5140172;27;20022;-92
2021/12/21 04:50:11;;;;;;;26.67;12.02;;;77.20;2227.20;;;;;;5139935;27;20019;-91
2021/12/21 04:52:37;;;;;;;20.40;11.27;;;77.10;2227.20;;;;;;5140009;27;20108;-91
2021/12/21 04:55:04;;;;;;;17.88;10.43;;;77.20;2227.20;;;;;;5139857;27;20031;-91
2021/12/21 04:57:30;;;;;;;14.35;8.93;;;77.20;2227.20;;;;;;5139812;27;20110;-91
2021/12/21 04:59:56;;;;;;;17.63;10.38;;;77.20;2227.20;;;;;;5139853;27;20117;-92
2021/12/21 05:02:23;;;;;;;9.55;5.55;;;77.20;2227.20;;;;;;5139814;27;20379;-91
2021/12/21 05:04:49;;;;;;;17.50;8.18;;;77.10;2227.20;;;;;;5139617;27;20457;-91
2021/12/21 05:07:22;;;;;;;21.05;12.40;;;77.10;2227.20;;;;;;5139708;27;20026;-91
2021/12/21 05:09:55;;;;;;;20.70;10.57;;;77.10;2227.20;;;;;;5139651;27;20019;-91
2021/12/21 05:12:21;;;;;;;16.17;9.63;;;77.10;2227.20;;;;;;5139703;27;20058;-92
2021/12/21 05:14:48;;;;;;;15.93;9.27;;;77.20;2227.20;;;;;;5139405;27;20034;-91
2021/12/21 05:17:14;;;;;;;16.88;11.38;;;77.10;2227.20;;;;;;5138998;27;20019;-91
2021/12/21 05:19:40;;;;;;;16.45;10.90;;;77.10;2227.20;;;;;;5139033;27;20021;-91
2021/12/21 05:22:06;;;;;;;19.70;11.68;;;77.20;2227.20;;;;;;5139370;27;20015;-90
2021/12/21 05:24:32;;;;;;;23.20;15.73;;;77.10;2227.20;;;;;;5139425;27;20030;-91
2021/12/21 05:26:58;;;;;;;19.98;13.07;;;77.10;2227.20;;;;;;5139329;27;20022;-91
2021/12/21 05:29:24;;;;;;;16.92;10.98;;;77.20;2227.20;;;;;;5139134;27;20043;-92
2021/12/21 05:31:50;;;;;;;14.70;8.85;;;77.20;2227.20;;;;;;5139580;27;20022;-90
2021/12/21 05:34:16;;;;;;;12.55;7.85;;;77.10;2227.20;;;;;;5142288;27;20068;-90
2021/12/21 05:36:42;;;;;;;10.90;6.85;;;77.20;2227.20;;;;;;5163802;27;20007;-92
2021/12/21 05:39:17;;;;;;;11.13;7.25;;;77.20;2227.20;;;;;;5140414;27;20023;-91
2021/12/21 05:41:50;;;;;;;18.98;9.82;;;77.20;2227.20;;;;;;5139293;27;20015;-91
2021/12/21 05:44:17;;;;;;;21.42;12.82;;;77.20;2227.20;;;;;;5139429;27;20025;-91
2021/12/21 05:46:43;;;;;;;30.73;16.00;;;77.10;2227.20;;;;;;5139036;27;20450;-90
2021/12/21 05:49:09;;;;;;;16.15;9.18;;;77.10;2227.20;;;;;;5138989;27;20082;-91
2021/12/21 05:51:34;;;;;;;26.05;15.55;;;77.00;2227.20;;;;;;5138871;27;20019;-92
2021/12/21 05:54:00;;;;;;;31.52;19.00;;;77.00;2227.20;;;;;;5138555;27;20023;-90
2021/12/21 05:56:26;;;;;;;73.03;38.53;;;77.00;2227.20;;;;;;5138727;27;20023;-91
2021/12/21 05:58:52;;;;;;;29.90;18.02;;;77.00;2227.20;;;;;;5138813;27;20106;-90
2021/12/21 06:01:18;;;;;;;28.25;17.25;;;77.00;2227.20;;;;;;5138629;27;20106;-91
2021/12/21 06:03:43;;;;;;;26.45;16.23;;;77.10;2227.20;;;;;;5138704;27;20113;-92
2021/12/21 06:06:15;;;;;;;20.40;12.88;;;77.00;2227.20;;;;;;5138628;27;20015;-91
2021/12/21 06:08:42;;;;;;;16.02;7.93;;;77.00;2227.20;;;;;;5138767;27;20102;-90
2021/12/21 06:11:08;;;;;;;17.35;8.43;;;77.00;2227.20;;;;;;5138383;27;20023;-91
2021/12/21 06:16:29;;;;;;;20.25;11.15;;;77.10;2227.20;;;;;;5156946;27;20023;-91
2021/12/21 06:26:54;;;;;;;19.77;11.82;;;77.00;2227.20;;;;;;5156739;27;20045;-92
2021/12/21 06:29:20;;;;;;;17.98;9.38;;;77.10;2227.20;;;;;;5138335;27;20115;-91
2021/12/21 06:31:47;;;;;;;16.23;9.95;;;77.10;2227.20;;;;;;5138361;27;20027;-89
2021/12/21 06:34:13;;;;;;;12.27;7.63;;;76.90;2227.20;;;;;;5138265;27;20130;-91
2021/12/21 06:36:39;;;;;;;15.15;9.48;;;77.00;2227.20;;;;;;5138448;27;20054;-92
2021/12/21 06:39:06;;;;;;;28.60;19.73;;;76.90;2227.20;;;;;;5138341;27;20023;-91
2021/12/21 06:41:35;;;;;;;27.30;16.73;;;76.90;2227.20;;;;;;5138577;27;20015;-90
2021/12/21 06:44:03;;;;;;;17.23;10.38;;;76.90;2227.20;;;;;;5138701;27;20047;-91
2021/12/21 06:46:47;;;;;;;16.48;11.13;;;77.20;2227.20;;;;;;5139031;27;20023;-91
2021/12/21 06:51:58;;;;;;;20.70;12.13;;;52.10;2227.20;;;;;;5156910;27;20519;-90
2021/12/21 06:54:24;;;;;;;35.03;18.92;;;51.80;2227.20;;;;;;5137852;27;20049;-91
2021/12/21 06:56:50;;;;;;;28.35;15.43;;;51.70;2227.20;;;;;;5137925;27;20445;-90
2021/12/21 06:59:16;;;;;;;33.05;19.38;;;51.70;2227.20;;;;;;5137996;27;20026;-90
2021/12/21 07:01:43;;;;;;;42.58;25.05;;;51.70;2227.20;;;;;;5137815;27;20366;-90
2021/12/21 07:04:10;;;;;;;91.88;48.92;;;51.80;2227.20;;;;;;5138106;27;20438;-90
2021/12/21 07:06:38;;;;;;;64.03;39.33;;;51.70;2227.20;;;;;;5137892;27;20023;-90
2021/12/21 07:09:16;;;;;;;39.13;24.67;;;51.70;2227.20;;;;;;5137832;27;20087;-90
2021/12/21 07:19:37;;;;;;;28.52;19.20;;;51.90;2227.20;;;;;;5156300;27;20021;-91
2021/12/21 07:22:05;;;;;;;24.60;14.98;;;52.10;2227.20;;;;;;5137594;27;20110;-90
2021/12/21 07:24:31;;;;;;;18.52;10.95;;;76.80;2227.20;;;;;;5137836;27;20023;-92
2021/12/21 07:26:57;;;;;;;17.75;12.55;;;76.80;2227.20;;;;;;5137766;27;20365;-89
2021/12/21 07:29:23;;;;;;;21.50;14.20;;;76.90;2227.20;;;;;;5137761;27;20023;-90
2021/12/21 07:31:49;;;;;;;10.25;6.93;;;77.00;2227.20;;;;;;5137625;27;20027;-90
2021/12/21 07:34:15;;;;;;;16.42;10.57;;;77.00;2227.20;;;;;;5137490;27;20042;-91
2021/12/21 07:36:43;;;;;;;15.23;9.40;;;77.00;2227.20;;;;;;5137752;27;20014;-90
2021/12/21 07:39:12;;;;;;;20.55;12.27;;;77.00;2227.20;;;;;;5137908;27;20023;-90
2021/12/21 07:41:39;;;;;;;17.00;10.63;;;77.10;2227.20;;;;;;5139324;27;20026;-91
2021/12/21 07:44:05;;;;;;;11.23;8.07;;;77.20;2227.20;;;;;;5141624;27;20052;-91
2021/12/21 07:46:31;;;;;;;21.77;12.80;;;77.00;2227.20;;;;;;5141773;27;20026;-91
2021/12/21 07:48:57;;;;;;;18.25;11.32;;;77.00;2227.20;;;;;;5141204;27;20022;-91
2021/12/21 07:51:24;;;;;;;10.77;7.45;;;77.00;2227.20;;;;;;5141171;27;20023;-90
2021/12/21 07:53:50;;;;;;;22.38;12.77;;;77.00;2227.20;;;;;;5141018;27;20473;-91
2021/12/21 07:56:16;;;;;;;17.60;10.60;;;77.00;2227.20;;;;;;5141024;27;20048;-91
2021/12/21 07:58:44;;;;;;;18.35;10.13;;;77.10;2227.20;;;;;;5141082;27;20450;-91
2021/12/21 08:01:11;;;;;;;12.55;8.15;;;77.10;2227.20;;;;;;5140770;27;20023;-90
2021/12/21 08:03:37;;;;;;;12.15;8.18;;;77.00;2227.20;;;;;;5140946;27;20484;-90
2021/12/21 08:06:07;;;;;;;13.45;10.23;;;77.40;2227.20;;;;;;5141000;27;20058;-90
2021/12/21 08:08:35;;;;;;;15.98;9.93;;;77.00;2227.20;;;;;;5140810;27;20026;-89
2021/12/21 08:11:27;;;;;;;16.02;10.30;;;77.40;2227.20;;;;;;5140472;27;20054;-90
2021/12/21 08:13:53;;;;;;;14.45;9.52;;;77.10;2227.20;;;;;;5140949;27;20454;-91
2021/12/21 08:16:18;;;;;;;10.73;8.13;;;77.00;2227.20;;;;;;5140789;27;20068;-91
2021/12/21 08:18:45;;;;;;;23.10;15.70;;;77.00;2227.20;;;;;;5140678;27;20015;-89
2021/12/21 08:21:13;;;;;;;17.85;11.63;;;76.90;2227.20;;;;;;5140631;27;20446;-90
2021/12/21 08:23:39;;;;;;;31.88;18.95;;;77.10;2227.20;;;;;;5140437;27;20023;-91
2021/12/21 08:26:06;;;;;;;21.23;13.82;;;77.20;2227.20;;;;;;5141182;27;20052;-90
2021/12/21 08:28:31;;;;;;;22.52;13.50;;;77.20;2227.20;;;;;;5141286;27;20019;-89
2021/12/21 08:30:57;;;;;;;46.13;29.33;;;77.20;2227.20;;;;;;5141326;27;20022;-89
2021/12/21 08:33:23;;;;;;;23.05;13.63;;;77.20;2227.20;;;;;;5140087;27;20057;-90
2021/12/21 08:35:51;;;;;;;49.75;31.05;;;77.20;2227.20;;;;;;5140541;27;20023;-91
2021/12/21 08:38:19;;;;;;;11.75;7.78;;;77.30;2227.20;;;;;;5140260;27;20027;-90
2021/12/21 08:40:49;;;;;;;12.10;8.43;;;77.30;2227.20;;;;;;5140187;27;20019;-91
2021/12/21 08:43:23;;;;;;;18.10;9.70;;;77.30;2227.20;;;;;;5140442;27;20022;-91
2021/12/21 08:45:51;;;;;;;17.35;11.05;;;77.50;2227.20;;;;;;5140354;27;20029;-92
2021/12/21 08:48:17;;;;;;;15.38;10.82;;;77.50;2227.20;;;;;;5140470;27;20029;-92
2021/12/21 08:50:43;;;;;;;17.13;9.93;;;77.60;2227.20;;;;;;5140160;27;20021;-91
2021/12/21 08:53:09;;;;;;;16.73;9.60;;;102.60;2227.20;;;;;;5139840;27;20026;-90
2021/12/21 08:55:35;;;;;;;30.60;14.57;;;77.50;2227.20;;;;;;5139954;27;20022;-90
2021/12/21 08:58:02;;;;;;;37.75;22.17;;;77.50;2227.20;;;;;;5140168;27;20023;-90
2021/12/21 09:00:27;;;;;;;15.40;8.77;;;77.60;2227.20;;;;;;5158036;27;20030;-89
2021/12/21 09:02:54;;;;;;;35.22;17.58;;;77.60;2227.20;;;;;;5154358;27;20455;-91
2021/12/21 09:05:25;;;;;;;20.60;12.35;;;77.70;2227.20;;;;;;5144326;27;20029;-93
2021/12/21 09:07:51;;;;;;;17.75;12.68;;;77.70;2227.20;;;;;;5143884;27;20019;-94
2021/12/21 09:10:20;;;;;;;12.05;7.35;;;77.70;2227.20;;;;;;5139848;27;20027;-94
2021/12/21 09:12:47;;;;;;;13.27;7.65;;;77.70;2227.20;;;;;;5139141;27;20022;-85
2021/12/21 09:15:14;;;;;;;16.35;10.27;;;77.70;2227.20;;;;;;5138965;27;20023;-85
2021/12/21 09:17:41;;;;;;;9.73;5.97;;;102.40;2227.20;;;;;;5139089;27;20022;-89
2021/12/21 09:20:09;;;;;;;20.75;16.27;;;77.70;2227.20;;;;;;5139018;27;20374;-88
2021/12/21 09:22:35;;;;;;;13.38;9.48;;;102.40;2227.20;;;;;;5138974;27;20101;-88
2021/12/21 09:25:01;;;;;;;14.60;10.38;;;102.40;2227.20;;;;;;5139041;27;20026;-88
2021/12/21 09:27:27;;;;;;;17.50;11.93;;;102.50;2227.20;;;;;;5138540;27;20123;-83
2021/12/21 09:29:53;;;;;;;11.77;7.90;;;102.40;2227.20;;;;;;5138486;27;20030;-82
2021/12/21 09:32:19;;;;;;;9.43;6.07;;;102.50;2227.20;;;;;;5138225;27;20066;-78
2021/12/21 09:34:47;;;;;;;16.88;12.20;;;102.40;2227.20;;;;;;5137725;27;20077;-81
2021/12/21 09:37:16;;;;;;;29.50;17.52;;;102.50;2227.20;;;;;;5138078;27;20019;-83
2021/12/21 09:39:48;;;;;;;16.92;9.88;;;102.60;2227.20;;;;;;5138301;27;20430;-85
2021/12/21 09:42:17;;;;;;;15.40;9.48;;;102.70;2227.20;;;;;;5137738;27;20469;-85
2021/12/21 09:44:44;;;;;;;11.73;7.47;;;102.80;2227.20;;;;;;5156658;27;20026;-83
2021/12/21 09:47:11;;;;;;;10.48;5.72;;;102.80;2227.20;;;;;;5138086;27;20044;-82
2021/12/21 09:49:38;;;;;;;11.50;7.10;;;102.60;2227.20;;;;;;5137814;27;20450;-83
2021/12/21 09:52:08;;;;;;;13.07;8.60;;;102.60;2227.20;;;;;;5137784;27;20058;-88
2021/12/21 09:54:36;;;;;;;9.52;6.97;;;102.50;2227.20;;;;;;5137673;27;20025;-83
2021/12/21 09:57:02;;;;;;;12.70;8.32;;;102.40;2227.20;;;;;;5138033;27;20022;-84
2021/12/21 09:59:28;;;;;;;22.95;15.70;;;102.50;2227.20;;;;;;5138726;27;20438;-91
2021/12/21 10:01:56;;;;;;;9.93;6.97;;;102.60;2227.20;;;;;;5138665;27;20030;-91
2021/12/21 10:04:24;;;;;;;15.10;8.55;;;102.70;2227.20;;;;;;5138104;27;20446;-84
2021/12/21 10:07:10;;;;;;;16.08;9.07;;;102.80;2227.20;;;;;;5138510;27;20019;-92
2021/12/21 10:09:36;;;;;;;11.05;6.03;;;102.80;2227.20;;;;;;5138406;27;20025;-92
2021/12/21 10:12:03;;;;;;;10.48;6.15;;;102.90;2227.20;;;;;;5138444;27;20019;-91
2021/12/21 10:14:29;;;;;;;18.48;12.32;;;102.80;2227.20;;;;;;5138617;27;20526;-91
2021/12/21 10:17:06;;;;;;;16.75;11.55;;;103.00;2227.20;;;;;;5138640;27;20019;-95
2021/12/21 10:19:33;;;;;;;11.60;6.95;;;103.00;2227.20;;;;;;5138159;27;20015;-89
2021/12/21 10:22:14;;;;;;;7.28;4.07;;;103.00;2227.20;;;;;;5138227;27;20109;-90
2021/12/21 10:24:46;;;;;;;13.77;7.68;;;103.00;2176.00;;;;;;5138027;27;20022;-90
2021/12/21 10:27:13;;;;;;;15.63;9.07;;;103.00;2176.00;;;;;;5138378;27;20015;-89
2021/12/21 10:29:48;;;;;;;14.18;8.20;;;103.00;2201.60;;;;;;5138221;27;20067;-89
2021/12/21 10:32:48;;;;;;;22.88;12.88;;;103.00;2227.20;;;;;;5138331;27;20066;-87
2021/12/21 10:35:20;;;;;;;17.80;9.02;;;102.90;2227.20;;;;;;5137885;27;20053;-90
2021/12/21 10:37:50;;;;;;;14.50;9.43;;;102.80;2227.20;;;;;;5137962;27;20046;-88
2021/12/21 10:40:26;;;;;;;16.05;7.43;;;102.80;2227.20;;;;;;5138634;27;20091;-88
2021/12/21 10:43:06;;;;;;;12.70;8.90;;;102.60;2227.20;;;;;;5138257;27;20022;-90
2021/12/21 10:45:39;;;;;;;12.40;7.63;;;102.70;2227.20;;;;;;5138178;27;20019;-89
2021/12/21 10:48:08;;;;;;;13.38;9.32;;;102.70;2227.20;;;;;;5138087;27;20018;-91
2021/12/21 10:50:34;;;;;;;51.63;33.70;;;102.80;2227.20;;;;;;5138098;27;20050;-91
2021/12/21 10:53:02;;;;;;;19.80;13.00;;;103.00;2201.60;;;;;;5138111;27;20026;-89
2021/12/21 10:55:33;;;;;;;13.52;8.35;;;103.10;2227.20;;;;;;5137961;27;20027;-93
2021/12/21 10:58:15;;;;;;;11.63;7.18;;;103.20;2176.00;;;;;;5138001;27;20360;-86
2021/12/21 11:00:53;;;;;;;10.35;6.00;;;128.00;2252.80;;;;;;5137649;27;20011;-88
2021/12/21 11:03:38;;;;;;;6.45;4.65;;;103.30;2176.00;;;;;;5137470;27;20050;-93
2021/12/21 11:06:19;;;;;;;8.15;5.78;;;103.10;2176.00;;;;;;5137815;27;20019;-91
2021/12/21 11:08:53;;;;;;;12.18;6.63;;;103.00;2201.60;;;;;;5138059;27;20109;-85
2021/12/21 11:11:42;;;;;;;9.35;6.47;;;102.80;2227.20;;;;;;5133736;27;20026;-84
2021/12/21 11:14:15;;;;;;;11.07;6.95;;;102.90;2227.20;;;;;;5135874;27;20503;-86
2021/12/21 11:16:46;;;;;;;9.90;7.15;;;103.10;2227.20;;;;;;5138059;27;20129;-86
2021/12/21 11:19:15;;;;;;;10.18;7.82;;;103.00;2227.20;;;;;;5140667;27;20388;-92
2021/12/21 11:21:42;;;;;;;11.27;8.85;;;128.00;2252.80;;;;;;5141169;27;20019;-91
2021/12/21 11:24:14;;;;;;;12.25;8.25;;;128.20;2252.80;;;;;;5141497;27;20038;-91
2021/12/21 11:26:41;;;;;;;14.55;10.55;;;128.00;2176.00;;;;;;5141204;27;20015;-91
2021/12/21 11:29:10;;;;;;;9.23;6.03;;;103.20;2176.00;;;;;;5141320;27;20023;-91
2021/12/21 11:31:39;;;;;;;11.55;8.35;;;103.30;2176.00;;;;;;5141367;27;20023;-92
2021/12/21 11:34:08;;;;;;;10.38;6.05;;;103.20;2176.00;;;;;;5140624;27;20047;-93
2021/12/21 11:39:21;;;;;;;10.45;7.45;;;102.90;2124.80;;;;;;5159779;27;20148;-94
2021/12/21 11:41:48;;;;;;;9.90;6.90;;;103.30;2150.40;;;;;;5141296;27;20067;-90
2021/12/21 11:44:52;;;;;;;8.80;6.03;;;102.70;2150.40;;;;;;5142548;27;20014;-95
2021/12/21 11:47:59;;;;;;;14.27;8.32;;;102.60;2150.40;;;;;;5141291;27;20072;-93
2021/12/21 11:50:25;;;;;;;17.88;9.57;;;102.50;2176.00;;;;;;5038202;28;20116;-91
2021/12/21 11:52:58;;;;;;;13.82;9.73;;;102.60;2227.20;;;;;;5138848;27;20055;-92
2021/12/21 11:55:26;;;;;;;17.02;11.02;;;128.00;2176.00;;;;;;5139808;27;20037;-92
2021/12/21 11:57:58;;;;;;;29.45;17.95;;;128.60;2099.20;;;;;;5141036;27;20027;-93
2021/12/21 12:00:31;;;;;;;13.40;8.47;;;153.90;2073.60;;;;;;5141150;27;20042;-92
2021/12/21 12:03:35;;;;;;;10.95;7.68;;;154.20;2048.00;;;;;;5140745;27;20015;-92
2021/12/21 12:06:07;;;;;;;11.43;8.57;;;154.20;1996.80;;;;;;5140961;27;20043;-93
2021/12/21 12:08:50;;;;;;;23.42;12.68;;;154.10;1945.60;;;;;;5140800;27;20014;-93
2021/12/21 12:11:35;;;;;;;42.03;23.45;;;154.50;1920.00;;;;;;5140563;27;20018;-90
2021/12/21 12:17:50;;;;;;;29.23;15.75;;;180.10;1945.60;;;;;;5054744;28;20079;-91
2021/12/21 12:23:53;;;;;;;48.20;31.55;;;179.80;1817.60;;;;;;5039572;28;20083;-91
2021/12/21 12:26:30;;;;;;;26.27;16.77;;;179.90;1920.00;;;;;;5069027;27;20029;-89
2021/12/21 12:29:09;;;;;;;16.42;12.32;;;179.30;1920.00;;;;;;5132817;27;20060;-89
2021/12/21 12:31:38;;;;;;;20.08;14.38;;;154.00;1920.00;;;;;;5140307;27;20040;-88
2021/12/21 12:34:04;;;;;;;16.65;11.77;;;128.90;1920.00;;;;;;5139847;27;20046;-87
2021/12/21 12:36:35;;;;;;;13.90;10.27;;;128.80;1971.20;;;;;;5139739;27;20019;-90
2021/12/21 12:39:03;;;;;;;12.90;9.50;;;128.30;1971.20;;;;;;5139876;27;20027;-90
2021/12/21 12:41:29;;;;;;;17.42;12.75;;;128.60;1971.20;;;;;;5139900;27;20019;-89
2021/12/21 12:43:55;;;;;;;6.88;4.90;;;128.80;1945.60;;;;;;5139653;27;20022;-90
2021/12/21 12:46:28;;;;;;;10.88;6.43;;;128.70;1920.00;;;;;;5139220;27;20364;-86
2021/12/21 12:48:53;;;;;;;13.68;9.60;;;128.90;1894.40;;;;;;5141031;27;20481;-87
2021/12/21 12:51:29;;;;;;;15.60;8.13;;;153.60;1920.00;;;;;;5163788;27;20007;-85
2021/12/21 12:53:56;;;;;;;10.95;6.97;;;153.70;1920.00;;;;;;5143805;27;20034;-87
2021/12/21 12:56:25;;;;;;;11.98;7.47;;;153.90;1894.40;;;;;;5140854;27;20109;-87
2021/12/21 12:59:04;;;;;;;16.98;10.05;;;153.90;1894.40;;;;;;5139608;27;20075;-85
2021/12/21 13:01:33;;;;;;;19.77;12.88;;;154.10;1894.40;;;;;;5139140;27;20022;-91
2021/12/21 13:04:04;;;;;;;11.63;7.28;;;154.10;1868.80;;;;;;5140446;27;20014;-89
2021/12/21 13:06:33;;;;;;;13.50;8.48;;;154.20;1868.80;;;;;;5140005;27;20021;-89
2021/12/21 13:08:59;;;;;;;15.68;9.00;;;154.10;1894.40;;;;;;5139242;27;20019;-85
2021/12/21 13:11:31;;;;;;;20.67;12.73;;;154.30;1868.80;;;;;;5139232;27;20076;-87
2021/12/21 13:13:57;;;;;;;12.15;7.78;;;179.20;1868.80;;;;;;5138632;27;20462;-84
2021/12/21 13:16:27;;;;;;;12.60;8.30;;;179.50;1868.80;;;;;;5138418;27;20027;-90
2021/12/21 13:18:56;;;;;;;10.00;6.20;;;179.60;1792.00;;;;;;5138970;27;20018;-88
2021/12/21 13:21:34;;;;;;;10.32;6.70;;;179.70;1843.20;;;;;;5138816;27;20023;-84
2021/12/21 13:24:24;;;;;;;25.25;15.43;;;179.40;1817.60;;;;;;5138019;27;20082;-84
2021/12/21 13:26:56;;;;;;;42.67;25.33;;;179.40;1920.00;;;;;;5138074;27;20442;-79
2021/12/21 13:29:30;;;;;;;35.45;21.38;;;179.20;1996.80;;;;;;5138024;27;20022;-83